sensor_id;sensor_type;location;lat;lon;timestamp;pressure;altitude;pressure_sealevel;temperature;humidity
35878;BME280;21982;49.804;24.072;2023-06-22T00:01:15;97507.00;;;20.41;66.49
35878;BME280;21982;49.804;24.072;2023-06-22T00:03:41;97531.50;;;20.28;67.12
35878;BME280;21982;49.804;24.072;2023-06-22T00:06:06;97511.09;;;20.15;67.63
35878;BME280;21982;49.804;24.072;2023-06-22T00:11:08;97488.06;;;20.02;68.11
35878;BME280;21982;49.804;24.072;2023-06-22T00:13:54;97483.66;;;19.96;68.17
35878;BME280;21982;49.804;24.072;2023-06-22T00:16:19;97347.88;;;18.98;68.37
35878;BME280;21982;49.804;24.072;2023-06-22T00:18:44;97486.25;;;19.91;68.63
35878;BME280;21982;49.804;24.072;2023-06-22T00:21:12;97486.75;;;19.88;68.80
35878;BME280;21982;49.804;24.072;2023-06-22T00:23:38;97199.94;;;17.93;69.07
35878;BME280;21982;49.804;24.072;2023-06-22T00:26:04;97400.03;;;19.31;69.17
35878;BME280;21982;49.804;24.072;2023-06-22T00:28:31;97478.50;;;19.78;69.36
35878;BME280;21982;49.804;24.072;2023-06-22T00:30:56;97474.19;;;19.77;69.70
35878;BME280;21982;49.804;24.072;2023-06-22T00:33:22;97475.22;;;19.76;69.60
35878;BME280;21982;49.804;24.072;2023-06-22T00:35:47;97363.03;;;19.04;69.56
35878;BME280;21982;49.804;24.072;2023-06-22T00:38:12;97482.16;;;19.72;69.84
35878;BME280;21982;49.804;24.072;2023-06-22T00:40:38;97397.56;;;19.29;69.88
35878;BME280;21982;49.804;24.072;2023-06-22T00:43:04;97464.91;;;19.68;69.88
35878;BME280;21982;49.804;24.072;2023-06-22T00:45:30;97452.44;;;19.62;70.11
35878;BME280;21982;49.804;24.072;2023-06-22T00:47:59;97394.56;;;19.26;69.63
35878;BME280;21982;49.804;24.072;2023-06-22T00:50:26;97379.41;;;19.20;69.87
35878;BME280;21982;49.804;24.072;2023-06-22T00:55:28;97469.31;;;19.74;70.12
35878;BME280;21982;49.804;24.072;2023-06-22T00:57:54;97460.69;;;19.72;69.97
35878;BME280;21982;49.804;24.072;2023-06-22T01:00:22;97246.97;;;18.40;69.77
35878;BME280;21982;49.804;24.072;2023-06-22T01:02:50;97476.81;;;19.72;69.76
35878;BME280;21982;49.804;24.072;2023-06-22T01:05:18;97206.16;;;18.10;69.75
35878;BME280;21982;49.804;24.072;2023-06-22T01:07:54;97460.69;;;19.89;69.49
35878;BME280;21982;49.804;24.072;2023-06-22T01:10:40;97461.97;;;19.86;69.64
35878;BME280;21982;49.804;24.072;2023-06-22T01:13:13;97404.19;;;19.38;69.82
35878;BME280;21982;49.804;24.072;2023-06-22T01:15:44;97465.88;;;19.62;69.00
35878;BME280;21982;49.804;24.072;2023-06-22T01:18:12;97435.06;;;19.53;69.70
35878;BME280;21982;49.804;24.072;2023-06-22T01:20:40;97327.63;;;18.91;69.71
35878;BME280;21982;49.804;24.072;2023-06-22T01:26:25;97451.88;;;19.77;69.47
35878;BME280;21982;49.804;24.072;2023-06-22T01:28:55;97374.94;;;19.25;69.68
35878;BME280;21982;49.804;24.072;2023-06-22T01:31:24;97418.13;;;19.52;69.72
35878;BME280;21982;49.804;24.072;2023-06-22T01:33:53;97443.41;;;19.68;69.83
35878;BME280;21982;49.804;24.072;2023-06-22T01:36:21;97435.75;;;19.60;69.84
35878;BME280;21982;49.804;24.072;2023-06-22T01:38:48;97414.03;;;19.50;70.09
35878;BME280;21982;49.804;24.072;2023-06-22T01:41:15;97417.78;;;19.49;70.01
35878;BME280;21982;49.804;24.072;2023-06-22T01:43:41;97413.31;;;19.37;69.98
35878;BME280;21982;49.804;24.072;2023-06-22T01:46:07;97414.03;;;19.50;70.20
35878;BME280;21982;49.804;24.072;2023-06-22T01:48:33;97443.50;;;19.73;70.13
35878;BME280;21982;49.804;24.072;2023-06-22T01:51:11;97401.41;;;19.50;69.78
35878;BME280;21982;49.804;24.072;2023-06-22T01:53:37;97454.72;;;19.70;70.27
35878;BME280;21982;49.804;24.072;2023-06-22T01:56:04;97260.34;;;18.52;70.57
35878;BME280;21982;49.804;24.072;2023-06-22T01:58:30;97218.25;;;18.24;70.31
35878;BME280;21982;49.804;24.072;2023-06-22T02:01:00;97416.84;;;19.55;70.01
35878;BME280;21982;49.804;24.072;2023-06-22T02:03:35;97445.13;;;19.74;70.14
35878;BME280;21982;49.804;24.072;2023-06-22T02:06:14;97430.94;;;19.62;70.27
35878;BME280;21982;49.804;24.072;2023-06-22T02:08:48;97382.41;;;19.23;70.33
35878;BME280;21982;49.804;24.072;2023-06-22T02:11:15;97441.38;;;19.47;69.60
35878;BME280;21982;49.804;24.072;2023-06-22T02:13:42;97320.56;;;18.73;70.24
35878;BME280;21982;49.804;24.072;2023-06-22T02:19:01;97246.13;;;18.12;70.63
35878;BME280;21982;49.804;24.072;2023-06-22T02:21:30;97450.16;;;19.42;70.85
35878;BME280;21982;49.804;24.072;2023-06-22T02:23:56;97415.59;;;19.17;70.95
35878;BME280;21982;49.804;24.072;2023-06-22T02:26:22;97455.75;;;19.40;71.02
35878;BME280;21982;49.804;24.072;2023-06-22T02:28:49;97390.81;;;18.98;71.06
35878;BME280;21982;49.804;24.072;2023-06-22T02:31:16;97343.34;;;18.70;70.96
35878;BME280;21982;49.804;24.072;2023-06-22T02:33:43;97417.53;;;19.05;71.25
35878;BME280;21982;49.804;24.072;2023-06-22T02:36:09;97368.28;;;18.71;71.43
35878;BME280;21982;49.804;24.072;2023-06-22T02:38:40;97482.31;;;19.37;71.65
35878;BME280;21982;49.804;24.072;2023-06-22T02:41:16;97467.28;;;19.24;71.64
35878;BME280;21982;49.804;24.072;2023-06-22T02:43:46;97410.94;;;18.84;71.79
35878;BME280;21982;49.804;24.072;2023-06-22T02:46:12;97492.94;;;19.32;72.00
35878;BME280;21982;49.804;24.072;2023-06-22T02:48:40;97423.28;;;18.85;72.09
35878;BME280;21982;49.804;24.072;2023-06-22T02:51:06;97408.94;;;18.80;72.12
35878;BME280;21982;49.804;24.072;2023-06-22T02:53:32;97356.28;;;18.50;72.04
35878;BME280;21982;49.804;24.072;2023-06-22T02:55:57;97468.94;;;19.14;72.17
35878;BME280;21982;49.804;24.072;2023-06-22T02:58:23;97434.69;;;19.04;72.20
35878;BME280;21982;49.804;24.072;2023-06-22T03:00:49;97488.78;;;19.53;72.11
35878;BME280;21982;49.804;24.072;2023-06-22T03:03:21;97334.59;;;18.63;71.75
35878;BME280;21982;49.804;24.072;2023-06-22T03:05:46;97383.25;;;18.95;71.57
35878;BME280;21982;49.804;24.072;2023-06-22T03:08:12;97448.22;;;19.37;71.41
35878;BME280;21982;49.804;24.072;2023-06-22T03:10:38;97501.56;;;19.74;71.48
35878;BME280;21982;49.804;24.072;2023-06-22T03:13:04;97506.41;;;19.77;71.16
35878;BME280;21982;49.804;24.072;2023-06-22T03:15:29;97322.47;;;18.49;71.32
35878;BME280;21982;49.804;24.072;2023-06-22T03:17:56;97355.97;;;18.87;71.29
35878;BME280;21982;49.804;24.072;2023-06-22T03:20:21;97439.56;;;19.35;71.20
35878;BME280;21982;49.804;24.072;2023-06-22T03:22:47;97507.25;;;19.78;71.33
35878;BME280;21982;49.804;24.072;2023-06-22T03:25:14;97508.63;;;19.80;71.03
35878;BME280;21982;49.804;24.072;2023-06-22T03:27:40;97482.56;;;19.64;71.17
35878;BME280;21982;49.804;24.072;2023-06-22T03:30:09;97511.41;;;19.85;71.15
35878;BME280;21982;49.804;24.072;2023-06-22T03:32:38;97480.78;;;19.69;70.84
35878;BME280;21982;49.804;24.072;2023-06-22T03:35:04;97434.53;;;19.39;71.07
35878;BME280;21982;49.804;24.072;2023-06-22T03:37:31;97504.50;;;19.89;70.93
35878;BME280;21982;49.804;24.072;2023-06-22T03:39:57;97504.34;;;19.96;70.85
35878;BME280;21982;49.804;24.072;2023-06-22T03:42:22;97486.25;;;19.91;70.53
35878;BME280;21982;49.804;24.072;2023-06-22T03:44:48;97491.25;;;19.99;70.37
35878;BME280;21982;49.804;24.072;2023-06-22T03:47:14;97452.03;;;19.87;70.33
35878;BME280;21982;49.804;24.072;2023-06-22T03:49:39;97405.22;;;19.66;69.90
35878;BME280;21982;49.804;24.072;2023-06-22T03:52:05;97392.44;;;19.73;69.81
35878;BME280;21982;49.804;24.072;2023-06-22T03:54:30;97393.66;;;19.82;69.61
35878;BME280;21982;49.804;24.072;2023-06-22T03:56:57;97351.50;;;19.66;69.33
35878;BME280;21982;49.804;24.072;2023-06-22T03:59:24;97492.78;;;20.62;69.03
35878;BME280;21982;49.804;24.072;2023-06-22T04:01:49;97467.44;;;20.58;68.94
35878;BME280;21982;49.804;24.072;2023-06-22T04:04:16;97492.47;;;20.81;68.78
35878;BME280;21982;49.804;24.072;2023-06-22T04:06:41;97453.31;;;20.68;68.49
35878;BME280;21982;49.804;24.072;2023-06-22T04:09:07;97489.50;;;20.99;68.16
35878;BME280;21982;49.804;24.072;2023-06-22T04:11:33;97431.59;;;20.74;67.66
35878;BME280;21982;49.804;24.072;2023-06-22T04:13:59;97393.16;;;20.57;67.12
35878;BME280;21982;49.804;24.072;2023-06-22T04:16:25;97430.78;;;20.96;66.95
35878;BME280;21982;49.804;24.072;2023-06-22T04:18:51;97500.06;;;21.44;66.78
35878;BME280;21982;49.804;24.072;2023-06-22T04:21:18;97349.13;;;20.63;66.41
35878;BME280;21982;49.804;24.072;2023-06-22T04:23:45;97502.19;;;21.69;66.10
35878;BME280;21982;49.804;24.072;2023-06-22T04:26:11;97365.34;;;20.95;65.38
35878;BME280;21982;49.804;24.072;2023-06-22T04:28:37;97431.97;;;21.54;65.26
35878;BME280;21982;49.804;24.072;2023-06-22T04:31:03;97508.53;;;22.06;64.75
35878;BME280;21982;49.804;24.072;2023-06-22T04:33:31;97506.75;;;22.17;64.24
35878;BME280;21982;49.804;24.072;2023-06-22T04:35:57;97437.63;;;21.84;63.93
35878;BME280;21982;49.804;24.072;2023-06-22T04:38:23;97456.97;;;22.03;63.86
35878;BME280;21982;49.804;24.072;2023-06-22T04:40:50;97444.91;;;22.11;63.48
35878;BME280;21982;49.804;24.072;2023-06-22T04:43:45;97246.06;;;20.90;63.07
35878;BME280;21982;49.804;24.072;2023-06-22T04:46:19;97524.69;;;22.76;62.77
35878;BME280;21982;49.804;24.072;2023-06-22T04:48:45;97528.56;;;22.90;62.24
35878;BME280;21982;49.804;24.072;2023-06-22T04:51:10;97522.13;;;22.96;62.22
35878;BME280;21982;49.804;24.072;2023-06-22T04:53:35;97394.78;;;22.15;61.76
35878;BME280;21982;49.804;24.072;2023-06-22T04:56:01;97480.53;;;22.87;61.60
35878;BME280;21982;49.804;24.072;2023-06-22T05:03:49;97509.66;;;23.47;59.83
35878;BME280;21982;49.804;24.072;2023-06-22T05:06:22;97498.06;;;23.52;59.65
35878;BME280;21982;49.804;24.072;2023-06-22T05:08:57;97547.69;;;24.03;59.21
35878;BME280;21982;49.804;24.072;2023-06-22T05:11:28;97541.78;;;24.26;59.28
35878;BME280;21982;49.804;24.072;2023-06-22T05:13:55;97382.41;;;23.59;58.52
35878;BME280;21982;49.804;24.072;2023-06-22T05:16:21;97507.38;;;24.62;57.59
35878;BME280;21982;49.804;24.072;2023-06-22T05:18:54;97531.94;;;25.17;56.95
35878;BME280;21982;49.804;24.072;2023-06-22T05:21:24;97504.88;;;25.12;56.29
35878;BME280;21982;49.804;24.072;2023-06-22T05:23:51;97534.25;;;25.54;56.14
35878;BME280;21982;49.804;24.072;2023-06-22T05:26:16;97541.13;;;25.90;55.15
35878;BME280;21982;49.804;24.072;2023-06-22T05:28:43;97508.91;;;26.18;54.42
35878;BME280;21982;49.804;24.072;2023-06-22T05:31:16;97535.59;;;26.74;52.79
35878;BME280;21982;49.804;24.072;2023-06-22T05:33:47;97540.88;;;27.18;51.75
35878;BME280;21982;49.804;24.072;2023-06-22T05:36:14;97562.66;;;27.65;50.95
35878;BME280;21982;49.804;24.072;2023-06-22T05:38:41;97526.63;;;27.74;49.98
35878;BME280;21982;49.804;24.072;2023-06-22T05:41:07;97407.97;;;27.16;49.37
35878;BME280;21982;49.804;24.072;2023-06-22T05:43:33;97385.78;;;27.47;48.79
35878;BME280;21982;49.804;24.072;2023-06-22T05:46:00;97556.25;;;29.29;47.78
35878;BME280;21982;49.804;24.072;2023-06-22T05:48:29;97535.78;;;29.95;46.14
35878;BME280;21982;49.804;24.072;2023-06-22T05:50:54;97494.38;;;29.79;44.93
35878;BME280;21982;49.804;24.072;2023-06-22T05:53:20;97556.56;;;29.68;45.46
35878;BME280;21982;49.804;24.072;2023-06-22T05:55:45;97548.53;;;28.90;46.17
35878;BME280;21982;49.804;24.072;2023-06-22T05:58:15;97343.53;;;26.98;47.30
35878;BME280;21982;49.804;24.072;2023-06-22T06:00:41;97521.69;;;27.76;48.12
35878;BME280;21982;49.804;24.072;2023-06-22T06:03:07;97500.06;;;27.84;48.31
35878;BME280;21982;49.804;24.072;2023-06-22T06:05:33;97524.28;;;28.05;47.60
35878;BME280;21982;49.804;24.072;2023-06-22T06:08:04;97387.56;;;27.38;47.70
35878;BME280;21982;49.804;24.072;2023-06-22T06:10:33;97548.34;;;28.35;47.70
35878;BME280;21982;49.804;24.072;2023-06-22T06:13:19;97542.38;;;28.98;46.40
35878;BME280;21982;49.804;24.072;2023-06-22T06:15:44;97502.09;;;28.95;45.83
35878;BME280;21982;49.804;24.072;2023-06-22T06:18:10;97566.47;;;29.51;45.45
35878;BME280;21982;49.804;24.072;2023-06-22T06:20:37;97505.63;;;29.50;45.07
35878;BME280;21982;49.804;24.072;2023-06-22T06:23:02;97564.81;;;30.05;45.09
35878;BME280;21982;49.804;24.072;2023-06-22T06:25:29;97430.56;;;29.12;44.55
35878;BME280;21982;49.804;24.072;2023-06-22T06:27:58;97558.28;;;29.51;45.03
35878;BME280;21982;49.804;24.072;2023-06-22T06:30:23;97509.66;;;28.98;45.84
35878;BME280;21982;49.804;24.072;2023-06-22T06:32:49;97548.84;;;29.16;45.67
35878;BME280;21982;49.804;24.072;2023-06-22T06:35:15;97496.25;;;28.55;45.75
35878;BME280;21982;49.804;24.072;2023-06-22T06:37:43;97495.81;;;28.48;45.97
35878;BME280;21982;49.804;24.072;2023-06-22T06:40:11;97548.13;;;28.96;46.03
35878;BME280;21982;49.804;24.072;2023-06-22T06:42:43;97539.06;;;29.28;45.24
35878;BME280;21982;49.804;24.072;2023-06-22T06:45:29;97538.53;;;29.81;44.40
35878;BME280;21982;49.804;24.072;2023-06-22T06:47:58;97536.28;;;30.33;43.20
35878;BME280;21982;49.804;24.072;2023-06-22T06:50:23;97534.38;;;30.78;42.44
35878;BME280;21982;49.804;24.072;2023-06-22T06:52:48;97535.44;;;31.30;41.21
35878;BME280;21982;49.804;24.072;2023-06-22T06:55:17;97552.19;;;31.77;40.05
35878;BME280;21982;49.804;24.072;2023-06-22T06:57:42;97528.19;;;32.00;38.79
35878;BME280;21982;49.804;24.072;2023-06-22T07:00:11;97517.72;;;32.45;38.70
35878;BME280;21982;49.804;24.072;2023-06-22T07:02:43;97496.78;;;33.05;37.43
35878;BME280;21982;49.804;24.072;2023-06-22T07:05:10;97440.91;;;32.80;36.77
35878;BME280;21982;49.804;24.072;2023-06-22T07:07:36;97546.38;;;33.96;36.09
35878;BME280;21982;49.804;24.072;2023-06-22T07:10:03;97568.81;;;33.69;36.40
35878;BME280;21982;49.804;24.072;2023-06-22T07:12:29;97565.03;;;33.06;36.95
35878;BME280;21982;49.804;24.072;2023-06-22T07:15:01;97579.09;;;32.96;37.39
35878;BME280;21982;49.804;24.072;2023-06-22T07:17:27;97564.63;;;32.70;37.03
35878;BME280;21982;49.804;24.072;2023-06-22T07:19:52;97575.47;;;32.57;37.17
35878;BME280;21982;49.804;24.072;2023-06-22T07:22:18;97542.72;;;32.26;37.90
35878;BME280;21982;49.804;24.072;2023-06-22T07:24:43;97567.56;;;32.30;38.28
35878;BME280;21982;49.804;24.072;2023-06-22T07:27:09;97567.06;;;32.19;37.92
35878;BME280;21982;49.804;24.072;2023-06-22T07:29:36;97559.44;;;31.90;38.37
35878;BME280;21982;49.804;24.072;2023-06-22T07:32:02;97561.13;;;31.52;38.50
35878;BME280;21982;49.804;24.072;2023-06-22T07:34:29;97565.06;;;31.06;38.76
35878;BME280;21982;49.804;24.072;2023-06-22T07:36:55;97503.16;;;30.79;39.61
35878;BME280;21982;49.804;24.072;2023-06-22T07:39:21;97567.88;;;31.63;38.91
35878;BME280;21982;49.804;24.072;2023-06-22T07:41:51;97562.97;;;31.82;38.60
35878;BME280;21982;49.804;24.072;2023-06-22T07:44:16;97577.66;;;31.86;37.80
35878;BME280;21982;49.804;24.072;2023-06-22T07:46:42;97495.47;;;30.90;37.44
35878;BME280;21982;49.804;24.072;2023-06-22T07:49:07;97568.56;;;30.98;38.11
35878;BME280;21982;49.804;24.072;2023-06-22T07:51:34;97552.09;;;30.89;38.34
35878;BME280;21982;49.804;24.072;2023-06-22T07:54:00;97561.28;;;30.93;38.84
35878;BME280;21982;49.804;24.072;2023-06-22T07:56:26;97555.81;;;30.93;38.58
35878;BME280;21982;49.804;24.072;2023-06-22T07:58:51;97568.19;;;30.91;38.98
35878;BME280;21982;49.804;24.072;2023-06-22T08:01:18;97506.59;;;30.62;38.88
35878;BME280;21982;49.804;24.072;2023-06-22T08:03:47;97572.97;;;31.39;39.04
35878;BME280;21982;49.804;24.072;2023-06-22T08:06:13;97566.53;;;31.91;38.16
35878;BME280;21982;49.804;24.072;2023-06-22T08:08:38;97568.31;;;32.74;37.16
35878;BME280;21982;49.804;24.072;2023-06-22T08:11:04;97569.84;;;33.26;36.62
35878;BME280;21982;49.804;24.072;2023-06-22T08:13:31;97534.88;;;33.06;36.45
35878;BME280;21982;49.804;24.072;2023-06-22T08:15:56;97540.22;;;32.94;36.68
35878;BME280;21982;49.804;24.072;2023-06-22T08:18:21;97559.25;;;32.99;36.97
35878;BME280;21982;49.804;24.072;2023-06-22T08:20:47;97551.19;;;32.94;37.21
35878;BME280;21982;49.804;24.072;2023-06-22T08:23:12;97563.59;;;33.09;37.23
35878;BME280;21982;49.804;24.072;2023-06-22T08:25:38;97549.09;;;33.00;37.75
35878;BME280;21982;49.804;24.072;2023-06-22T08:28:04;97568.75;;;33.10;37.14
35878;BME280;21982;49.804;24.072;2023-06-22T08:30:30;97460.34;;;32.23;36.84
35878;BME280;21982;49.804;24.072;2023-06-22T08:32:55;97557.38;;;32.65;37.48
35878;BME280;21982;49.804;24.072;2023-06-22T08:35:23;97560.56;;;32.93;37.88
35878;BME280;21982;49.804;24.072;2023-06-22T08:37:49;97561.41;;;33.32;37.17
35878;BME280;21982;49.804;24.072;2023-06-22T08:40:21;97520.13;;;33.19;36.21
35878;BME280;21982;49.804;24.072;2023-06-22T08:42:47;97553.72;;;33.16;37.10
35878;BME280;21982;49.804;24.072;2023-06-22T08:45:14;97514.47;;;32.78;37.22
35878;BME280;21982;49.804;24.072;2023-06-22T08:47:41;97559.97;;;32.79;37.30
35878;BME280;21982;49.804;24.072;2023-06-22T08:50:10;97485.81;;;32.15;37.38
35878;BME280;21982;49.804;24.072;2023-06-22T08:52:38;97556.44;;;32.52;37.16
35878;BME280;21982;49.804;24.072;2023-06-22T08:55:06;97498.53;;;31.93;37.45
35878;BME280;21982;49.804;24.072;2023-06-22T08:57:32;97527.38;;;31.99;38.00
35878;BME280;21982;49.804;24.072;2023-06-22T08:59:57;97556.09;;;32.11;37.23
35878;BME280;21982;49.804;24.072;2023-06-22T09:02:24;97561.53;;;31.93;37.29
35878;BME280;21982;49.804;24.072;2023-06-22T09:04:50;97547.50;;;31.78;37.42
35878;BME280;21982;49.804;24.072;2023-06-22T09:07:24;97548.16;;;32.01;37.49
35878;BME280;21982;49.804;24.072;2023-06-22T09:09:50;97555.94;;;32.16;37.53
35878;BME280;21982;49.804;24.072;2023-06-22T09:12:17;97517.91;;;32.23;36.74
35878;BME280;21982;49.804;24.072;2023-06-22T09:14:51;97509.69;;;32.31;36.66
35878;BME280;21982;49.804;24.072;2023-06-22T09:17:16;97562.56;;;32.49;36.38
35878;BME280;21982;49.804;24.072;2023-06-22T09:19:41;97544.78;;;32.04;37.42
35878;BME280;21982;49.804;24.072;2023-06-22T09:22:07;97562.16;;;31.73;37.23
35878;BME280;21982;49.804;24.072;2023-06-22T09:24:33;97561.28;;;31.64;37.18
35878;BME280;21982;49.804;24.072;2023-06-22T09:26:58;97521.94;;;31.43;36.99
35878;BME280;21982;49.804;24.072;2023-06-22T09:29:24;97558.81;;;32.02;36.58
35878;BME280;21982;49.804;24.072;2023-06-22T09:31:50;97565.09;;;32.72;36.63
35878;BME280;21982;49.804;24.072;2023-06-22T09:34:16;97538.91;;;33.47;35.51
35878;BME280;21982;49.804;24.072;2023-06-22T09:36:45;97558.25;;;34.51;34.45
35878;BME280;21982;49.804;24.072;2023-06-22T09:39:10;97564.84;;;35.49;33.80
35878;BME280;21982;49.804;24.072;2023-06-22T09:41:36;97529.34;;;35.96;32.18
35878;BME280;21982;49.804;24.072;2023-06-22T09:44:01;97530.06;;;36.61;31.34
35878;BME280;21982;49.804;24.072;2023-06-22T09:46:27;97563.53;;;36.87;31.21
35878;BME280;21982;49.804;24.072;2023-06-22T09:48:53;97506.53;;;36.79;30.79
35878;BME280;21982;49.804;24.072;2023-06-22T09:51:18;97557.69;;;36.77;30.64
35878;BME280;21982;49.804;24.072;2023-06-22T09:53:46;97544.81;;;36.81;30.05
35878;BME280;21982;49.804;24.072;2023-06-22T09:56:11;97546.25;;;36.90;30.42
35878;BME280;21982;49.804;24.072;2023-06-22T09:58:43;97549.19;;;37.13;30.18
35878;BME280;21982;49.804;24.072;2023-06-22T10:01:09;97528.72;;;36.99;30.01
35878;BME280;21982;49.804;24.072;2023-06-22T10:03:36;97556.28;;;37.27;29.73
35878;BME280;21982;49.804;24.072;2023-06-22T10:06:03;97531.13;;;37.16;29.29
35878;BME280;21982;49.804;24.072;2023-06-22T10:08:29;97540.53;;;36.83;30.29
35878;BME280;21982;49.804;24.072;2023-06-22T10:10:54;97548.47;;;36.85;30.17
35878;BME280;21982;49.804;24.072;2023-06-22T10:13:19;97535.91;;;36.87;29.81
35878;BME280;21982;49.804;24.072;2023-06-22T10:15:45;97507.31;;;36.80;28.93
35878;BME280;21982;49.804;24.072;2023-06-22T10:18:16;97528.38;;;37.00;29.17
35878;BME280;21982;49.804;24.072;2023-06-22T10:20:42;97536.47;;;37.09;29.85
35878;BME280;21982;49.804;24.072;2023-06-22T10:23:11;97534.25;;;37.14;30.00
35878;BME280;21982;49.804;24.072;2023-06-22T10:25:36;97525.59;;;36.84;29.67
35878;BME280;21982;49.804;24.072;2023-06-22T10:28:02;97533.75;;;37.24;29.80
35878;BME280;21982;49.804;24.072;2023-06-22T10:30:31;97535.34;;;37.26;29.15
35878;BME280;21982;49.804;24.072;2023-06-22T10:32:58;97483.63;;;36.79;28.89
35878;BME280;21982;49.804;24.072;2023-06-22T10:35:25;97514.63;;;36.88;29.69
35878;BME280;21982;49.804;24.072;2023-06-22T10:37:52;97493.47;;;37.23;29.16
35878;BME280;21982;49.804;24.072;2023-06-22T10:40:18;97528.50;;;37.86;28.83
35878;BME280;21982;49.804;24.072;2023-06-22T10:42:45;97534.13;;;37.89;29.44
35878;BME280;21982;49.804;24.072;2023-06-22T10:45:11;97494.88;;;37.17;29.29
35878;BME280;21982;49.804;24.072;2023-06-22T10:47:37;97496.16;;;37.36;29.25
35878;BME280;21982;49.804;24.072;2023-06-22T10:50:03;97520.50;;;38.16;29.52
35878;BME280;21982;49.804;24.072;2023-06-22T10:52:29;97511.09;;;38.78;28.51
35878;BME280;21982;49.804;24.072;2023-06-22T10:54:55;97472.13;;;38.68;28.79
35878;BME280;21982;49.804;24.072;2023-06-22T10:57:22;97485.09;;;38.64;28.57
35878;BME280;21982;49.804;24.072;2023-06-22T10:59:48;97516.91;;;38.15;29.17
35878;BME280;21982;49.804;24.072;2023-06-22T11:02:13;97522.50;;;38.00;29.08
35878;BME280;21982;49.804;24.072;2023-06-22T11:04:39;97516.63;;;38.20;29.15
35878;BME280;21982;49.804;24.072;2023-06-22T11:07:04;97498.97;;;38.44;28.70
35878;BME280;21982;49.804;24.072;2023-06-22T11:09:30;97507.06;;;37.99;29.43
35878;BME280;21982;49.804;24.072;2023-06-22T11:11:55;97486.41;;;36.35;30.66
35878;BME280;21982;49.804;24.072;2023-06-22T11:14:21;97454.66;;;35.61;32.00
35878;BME280;21982;49.804;24.072;2023-06-22T11:16:47;97475.97;;;36.16;31.59
35878;BME280;21982;49.804;24.072;2023-06-22T11:19:12;97508.16;;;36.96;30.67
35878;BME280;21982;49.804;24.072;2023-06-22T11:21:38;97501.81;;;37.43;31.14
35878;BME280;21982;49.804;24.072;2023-06-22T11:24:04;97511.41;;;37.80;30.26
35878;BME280;21982;49.804;24.072;2023-06-22T11:26:29;97476.50;;;37.72;29.78
35878;BME280;21982;49.804;24.072;2023-06-22T11:28:55;97484.22;;;37.32;30.18
35878;BME280;21982;49.804;24.072;2023-06-22T11:31:21;97454.81;;;36.92;30.12
35878;BME280;21982;49.804;24.072;2023-06-22T11:33:46;97494.09;;;37.33;29.34
35878;BME280;21982;49.804;24.072;2023-06-22T11:36:13;97513.28;;;37.61;29.83
35878;BME280;21982;49.804;24.072;2023-06-22T11:38:39;97513.81;;;37.82;29.37
35878;BME280;21982;49.804;24.072;2023-06-22T11:41:08;97505.47;;;37.98;29.12
35878;BME280;21982;49.804;24.072;2023-06-22T11:43:34;97499.53;;;38.15;28.88
35878;BME280;21982;49.804;24.072;2023-06-22T11:46:01;97503.44;;;38.52;28.46
35878;BME280;21982;49.804;24.072;2023-06-22T11:48:27;97467.72;;;38.05;28.70
35878;BME280;21982;49.804;24.072;2023-06-22T11:50:52;97483.09;;;38.22;28.99
35878;BME280;21982;49.804;24.072;2023-06-22T11:53:21;97500.69;;;38.14;28.29
35878;BME280;21982;49.804;24.072;2023-06-22T11:55:47;97496.41;;;37.81;28.62
35878;BME280;21982;49.804;24.072;2023-06-22T11:58:12;97474.72;;;37.48;28.36
35878;BME280;21982;49.804;24.072;2023-06-22T12:00:38;97471.75;;;37.57;28.54
35878;BME280;21982;49.804;24.072;2023-06-22T12:03:03;97458.22;;;37.87;27.94
35878;BME280;21982;49.804;24.072;2023-06-22T12:05:29;97450.47;;;38.31;27.96
35878;BME280;21982;49.804;24.072;2023-06-22T12:07:54;97462.69;;;38.30;27.97
35878;BME280;21982;49.804;24.072;2023-06-22T12:10:21;97455.19;;;37.73;29.11
35878;BME280;21982;49.804;24.072;2023-06-22T12:12:48;97482.53;;;37.62;29.57
35878;BME280;21982;49.804;24.072;2023-06-22T12:15:13;97399.34;;;36.97;30.04
35878;BME280;21982;49.804;24.072;2023-06-22T12:17:39;97476.69;;;37.48;30.10
35878;BME280;21982;49.804;24.072;2023-06-22T12:20:06;97458.50;;;37.47;29.75
35878;BME280;21982;49.804;24.072;2023-06-22T12:22:32;97458.91;;;37.30;30.06
35878;BME280;21982;49.804;24.072;2023-06-22T12:24:58;97466.75;;;37.28;29.86
35878;BME280;21982;49.804;24.072;2023-06-22T12:27:23;97455.09;;;37.53;29.54
35878;BME280;21982;49.804;24.072;2023-06-22T12:29:48;97476.59;;;37.44;30.05
35878;BME280;21982;49.804;24.072;2023-06-22T12:32:14;97459.97;;;36.34;30.93
35878;BME280;21982;49.804;24.072;2023-06-22T12:34:44;97449.22;;;35.77;31.87
35878;BME280;21982;49.804;24.072;2023-06-22T12:37:11;97480.75;;;36.04;32.37
35878;BME280;21982;49.804;24.072;2023-06-22T12:39:36;97373.47;;;35.18;31.77
35878;BME280;21982;49.804;24.072;2023-06-22T12:42:02;97464.50;;;35.01;32.37
35878;BME280;21982;49.804;24.072;2023-06-22T12:44:27;97409.25;;;34.04;34.02
35878;BME280;21982;49.804;24.072;2023-06-22T12:46:53;97455.69;;;33.96;34.90
35878;BME280;21982;49.804;24.072;2023-06-22T12:49:19;97456.13;;;33.86;34.62
35878;BME280;21982;49.804;24.072;2023-06-22T12:51:44;97407.22;;;33.59;34.56
35878;BME280;21982;49.804;24.072;2023-06-22T12:54:10;97459.53;;;33.83;35.19
35878;BME280;21982;49.804;24.072;2023-06-22T12:56:37;97357.66;;;33.05;35.40
35878;BME280;21982;49.804;24.072;2023-06-22T12:59:06;97391.75;;;33.54;34.66
35878;BME280;21982;49.804;24.072;2023-06-22T13:01:31;97454.50;;;34.06;34.76
35878;BME280;21982;49.804;24.072;2023-06-22T13:03:58;97425.41;;;33.43;35.00
35878;BME280;21982;49.804;24.072;2023-06-22T13:06:23;97451.84;;;33.18;34.49